createdAt,value
2023-02-07T00:01:08.684Z,7.20
2023-02-07T00:04:30.253Z,7.10
2023-02-07T00:07:51.941Z,6.73
2023-02-07T00:11:19.361Z,6.87
2023-02-07T00:14:40.950Z,7.93
2023-02-07T00:18:02.473Z,6.37
2023-02-07T00:21:26.484Z,6.53
2023-02-07T00:24:48.310Z,7.10
2023-02-07T00:28:11.256Z,6.40
2023-02-07T00:31:34.749Z,7.60
2023-02-07T00:34:57.589Z,7.00
2023-02-07T00:38:19.727Z,7.30
2023-02-07T00:41:41.976Z,7.50
2023-02-07T00:45:05.374Z,6.63
2023-02-07T00:48:27.682Z,7.13
2023-02-07T00:51:49.240Z,8.43
2023-02-07T00:55:10.903Z,8.07
2023-02-07T00:58:32.821Z,7.43
2023-02-07T01:01:55.815Z,8.50
2023-02-07T01:05:17.977Z,8.37
2023-02-07T01:08:39.856Z,8.67
2023-02-07T01:12:01.094Z,8.47
2023-02-07T01:15:23.284Z,8.17
2023-02-07T01:18:46.128Z,8.63
2023-02-07T01:22:08.004Z,10.00
2023-02-07T01:25:29.306Z,9.40
2023-02-07T01:28:51.565Z,9.60
2023-02-07T01:32:13.462Z,9.67
2023-02-07T01:35:38.857Z,9.87
2023-02-07T01:39:01.219Z,9.63
2023-02-07T01:42:25.054Z,10.60
2023-02-07T01:45:46.566Z,11.77
2023-02-07T01:49:11.042Z,11.80
2023-02-07T01:52:38.935Z,10.80
2023-02-07T01:56:06.936Z,11.03
2023-02-07T01:59:29.274Z,10.13
2023-02-07T02:02:50.934Z,9.90
2023-02-07T02:06:15.165Z,10.50
2023-02-07T02:09:39.268Z,12.57
2023-02-07T02:13:18.263Z,12.60
2023-02-07T02:16:45.710Z,12.67
2023-02-07T02:20:45.620Z,12.70
2023-02-07T02:24:36.700Z,12.53
2023-02-07T02:28:33.529Z,12.13
2023-02-07T02:32:27.562Z,11.10
2023-02-07T02:35:58.985Z,10.57
2023-02-07T02:39:32.316Z,11.17
2023-02-07T02:42:59.462Z,11.20
2023-02-07T02:46:23.692Z,11.17
2023-02-07T02:49:46.116Z,10.50
2023-02-07T02:53:10.647Z,9.97
2023-02-07T02:57:07.551Z,9.63
2023-02-07T03:00:58.351Z,8.20
2023-02-07T03:04:33.880Z,8.70
2023-02-07T03:08:04.631Z,8.23
2023-02-07T03:11:33.048Z,8.57
2023-02-07T03:15:02.916Z,7.87
2023-02-07T03:18:30.301Z,8.57
2023-02-07T03:21:55.355Z,7.50
2023-02-07T03:25:19.471Z,7.57
2023-02-07T03:28:45.059Z,8.13
2023-02-07T03:32:08.979Z,7.67
2023-02-07T03:35:34.444Z,7.70
2023-02-07T03:38:56.340Z,8.13
2023-02-07T03:42:26.283Z,7.63
2023-02-07T03:45:49.534Z,8.03
2023-02-07T03:49:11.898Z,7.80
2023-02-07T03:52:33.631Z,7.97
2023-02-07T03:55:55.257Z,8.10
2023-02-07T03:59:16.568Z,7.83
2023-02-07T04:02:39.606Z,7.63
2023-02-07T04:06:00.826Z,7.83
2023-02-07T04:09:22.190Z,7.97
2023-02-07T04:12:43.464Z,8.10
2023-02-07T04:16:06.532Z,7.27
2023-02-07T04:19:29.459Z,7.50
2023-02-07T04:22:51.551Z,7.33
2023-02-07T04:26:13.244Z,7.00
2023-02-07T04:29:34.916Z,6.97
2023-02-07T04:32:56.755Z,7.80
2023-02-07T04:36:19.793Z,7.77
2023-02-07T04:39:41.688Z,7.30
2023-02-07T04:43:03.014Z,6.97
2023-02-07T04:46:24.823Z,7.23
2023-02-07T04:49:46.534Z,8.03
2023-02-07T04:53:09.203Z,7.23
2023-02-07T04:56:31.041Z,6.77
2023-02-07T04:59:52.384Z,7.63
2023-02-07T05:03:14.588Z,7.93
2023-02-07T05:06:36.521Z,7.27
2023-02-07T05:09:59.346Z,8.00
2023-02-07T05:13:21.186Z,10.50
2023-02-07T05:16:42.519Z,10.70
2023-02-07T05:20:04.373Z,11.07
2023-02-07T05:23:25.911Z,10.03
2023-02-07T05:26:48.839Z,8.70
2023-02-07T05:30:11.966Z,9.17
2023-02-07T05:33:33.493Z,9.00
2023-02-07T05:36:55.298Z,10.13
2023-02-07T05:40:17.049Z,9.03
2023-02-07T05:43:40.023Z,9.53
2023-02-07T05:47:01.857Z,11.77
2023-02-07T05:50:24.140Z,10.37
2023-02-07T05:53:58.542Z,9.37
2023-02-07T05:57:20.398Z,10.10
2023-02-07T06:00:43.423Z,7.97
2023-02-07T06:04:05.298Z,7.93
2023-02-07T06:07:26.915Z,6.87
2023-02-07T06:10:50.267Z,7.17
2023-02-07T06:14:12.032Z,6.60
2023-02-07T06:17:36.386Z,7.37
2023-02-07T06:20:57.844Z,7.30
2023-02-07T06:24:19.154Z,8.57
2023-02-07T06:27:41.910Z,13.00
2023-02-07T06:31:03.383Z,9.53
2023-02-07T06:34:26.544Z,7.77
2023-02-07T06:37:47.990Z,7.53
2023-02-07T06:41:11.241Z,8.30
2023-02-07T06:44:32.984Z,7.63
2023-02-07T06:47:54.445Z,9.97
2023-02-07T06:51:17.519Z,9.90
2023-02-07T06:54:38.916Z,10.13
2023-02-07T06:58:00.742Z,9.97
2023-02-07T07:01:22.530Z,8.50
2023-02-07T07:04:44.330Z,8.00
2023-02-07T07:08:07.676Z,7.67
2023-02-07T07:11:29.283Z,7.00
2023-02-07T07:14:51.038Z,9.37
2023-02-07T07:18:12.808Z,10.20
2023-02-07T07:21:34.710Z,8.57
2023-02-07T07:24:58.088Z,8.20
2023-02-07T07:28:19.532Z,10.37
2023-02-07T07:31:42.644Z,10.93
2023-02-07T07:35:05.141Z,11.50
2023-02-07T07:38:26.775Z,11.93
2023-02-07T07:41:49.460Z,11.37
2023-02-07T07:45:25.783Z,10.07
2023-02-07T07:48:47.327Z,10.57
2023-02-07T07:52:09.537Z,11.53
2023-02-07T07:55:31.264Z,11.70
2023-02-07T07:58:54.401Z,10.87
2023-02-07T08:02:16.090Z,11.00
2023-02-07T08:05:38.256Z,12.53
2023-02-07T08:09:00.741Z,12.60
2023-02-07T08:12:22.515Z,10.67
2023-02-07T08:15:45.356Z,8.80
2023-02-07T08:19:07.013Z,11.47
2023-02-07T08:22:28.434Z,10.13
2023-02-07T08:25:50.863Z,11.33
2023-02-07T08:29:13.351Z,10.13
2023-02-07T08:32:36.245Z,10.87
2023-02-07T08:35:58.485Z,10.47
2023-02-07T08:39:20.309Z,10.67
2023-02-07T08:42:41.604Z,10.70
2023-02-07T08:46:03.626Z,12.40
2023-02-07T08:49:27.536Z,12.27
2023-02-07T08:52:49.145Z,12.57
2023-02-07T08:56:11.124Z,12.50
2023-02-07T08:59:32.737Z,13.30
2023-02-07T09:02:54.663Z,13.70
2023-02-07T09:06:18.046Z,12.93
2023-02-07T09:09:40.296Z,12.33
2023-02-07T09:13:02.801Z,12.70
2023-02-07T09:16:25.506Z,13.17
2023-02-07T09:19:47.181Z,12.80
2023-02-07T09:23:19.338Z,12.63
2023-02-07T09:26:41.272Z,13.43
2023-02-07T09:30:02.499Z,13.20
2023-02-07T09:33:24.990Z,14.07
2023-02-07T09:36:46.735Z,13.03
2023-02-07T09:40:18.995Z,12.63
2023-02-07T09:43:51.563Z,13.40
2023-02-07T09:47:18.292Z,14.20
2023-02-07T09:50:46.210Z,13.63
2023-02-07T09:54:15.655Z,14.13
2023-02-07T09:57:45.299Z,13.30
2023-02-07T10:01:12.275Z,15.20
2023-02-07T10:04:40.810Z,15.57
2023-02-07T10:08:02.474Z,13.77
2023-02-07T10:11:35.260Z,14.80
2023-02-07T10:15:24.441Z,14.27
2023-02-07T10:18:50.909Z,14.37
2023-02-07T10:22:25.759Z,14.23
2023-02-07T10:25:59.841Z,14.17
2023-02-07T10:29:50.030Z,13.00
2023-02-07T10:33:16.498Z,13.93
2023-02-07T10:36:38.019Z,13.20
2023-02-07T10:40:04.666Z,13.20
2023-02-07T10:43:29.748Z,13.60
2023-02-07T10:46:56.039Z,14.00
2023-02-07T10:50:29.677Z,13.33
2023-02-07T10:54:02.083Z,13.93
2023-02-07T10:57:24.806Z,14.80
2023-02-07T11:00:50.060Z,15.00
2023-02-07T11:04:24.623Z,15.40
2023-02-07T11:07:58.289Z,14.33
2023-02-07T11:11:29.951Z,14.13
2023-02-07T11:15:02.643Z,14.13
2023-02-07T11:18:38.042Z,15.13
2023-02-07T11:22:11.717Z,15.27
2023-02-07T11:25:38.978Z,15.77
2023-02-07T11:29:13.172Z,16.47
2023-02-07T11:32:36.502Z,16.83
2023-02-07T11:36:07.363Z,16.50
2023-02-07T11:39:28.661Z,16.53
2023-02-07T11:42:59.662Z,15.87
2023-02-07T11:46:21.702Z,15.53
2023-02-07T11:49:46.332Z,14.27
2023-02-07T11:53:16.465Z,15.63
2023-02-07T11:56:40.761Z,14.03
2023-02-07T12:00:17.736Z,12.63
2023-02-07T12:03:44.997Z,12.37
2023-02-07T12:07:14.409Z,12.97
2023-02-07T12:10:43.420Z,12.70
2023-02-07T12:14:14.596Z,12.53
2023-02-07T12:17:43.336Z,10.83
2023-02-07T12:21:13.443Z,13.07
2023-02-07T12:24:41.500Z,9.83
2023-02-07T12:28:14.408Z,11.23
2023-02-07T12:31:50.986Z,11.10
2023-02-07T12:35:23.507Z,10.63
2023-02-07T12:38:49.444Z,9.67
2023-02-07T12:42:26.302Z,10.33
2023-02-07T12:46:01.802Z,10.23
2023-02-07T12:49:49.617Z,10.30
2023-02-07T12:53:26.980Z,10.90
2023-02-07T12:56:59.798Z,10.00
2023-02-07T13:00:29.410Z,9.73
2023-02-07T13:04:12.430Z,9.83
2023-02-07T13:07:46.552Z,9.37
2023-02-07T13:11:21.866Z,8.73
2023-02-07T13:15:06.891Z,9.77
2023-02-07T13:18:37.830Z,10.00
2023-02-07T13:22:03.536Z,12.53
2023-02-07T13:25:29.096Z,10.50
2023-02-07T13:28:56.210Z,9.47
2023-02-07T13:32:23.369Z,10.23
2023-02-07T13:35:47.121Z,9.53
2023-02-07T13:39:25.684Z,9.77
2023-02-07T13:42:56.062Z,9.40
2023-02-07T13:46:55.693Z,9.97
2023-02-07T13:50:31.784Z,11.30
2023-02-07T13:54:01.731Z,10.43
2023-02-07T13:58:00.807Z,10.50
2023-02-07T14:01:26.150Z,10.80
2023-02-07T14:04:51.494Z,10.83
2023-02-07T14:08:25.331Z,10.17
2023-02-07T14:11:50.183Z,10.83
2023-02-07T14:15:53.512Z,10.50
2023-02-07T14:19:37.743Z,10.97
2023-02-07T14:23:15.188Z,11.57
2023-02-07T14:26:59.516Z,13.00
2023-02-07T14:30:23.800Z,12.77
2023-02-07T14:34:14.066Z,13.67
2023-02-07T14:37:46.354Z,15.03
2023-02-07T14:41:12.665Z,14.17
2023-02-07T14:44:37.192Z,13.63
2023-02-07T14:47:59.211Z,13.93
2023-02-07T14:51:24.634Z,13.07
2023-02-07T14:54:52.044Z,14.70
2023-02-07T14:58:27.573Z,12.80
2023-02-07T15:01:49.534Z,13.23
2023-02-07T15:05:21.184Z,13.20
2023-02-07T15:08:57.469Z,12.90
2023-02-07T15:12:27.357Z,14.20
2023-02-07T15:15:54.946Z,12.87
2023-02-07T15:19:22.185Z,13.90
2023-02-07T15:22:44.292Z,12.80
2023-02-07T15:26:09.105Z,12.27
2023-02-07T15:29:34.863Z,12.17
2023-02-07T15:32:56.991Z,11.37
2023-02-07T15:36:34.889Z,12.53
2023-02-07T15:39:58.023Z,12.67
2023-02-07T15:43:29.523Z,11.73
2023-02-07T15:46:55.032Z,12.83
2023-02-07T15:50:22.961Z,13.40
2023-02-07T15:53:44.846Z,14.47
2023-02-07T15:57:13.475Z,14.77
2023-02-07T16:00:40.052Z,15.10
2023-02-07T16:04:05.205Z,14.70
2023-02-07T16:07:27.069Z,13.73
2023-02-07T16:10:48.978Z,13.77
2023-02-07T16:14:25.062Z,14.17
2023-02-07T16:17:47.356Z,15.37
2023-02-07T16:21:14.692Z,13.17
2023-02-07T16:24:38.621Z,12.53
2023-02-07T16:28:01.200Z,10.87
2023-02-07T16:31:23.104Z,11.57
2023-02-07T16:34:58.784Z,11.37
2023-02-07T16:38:22.470Z,13.30
2023-02-07T16:41:47.167Z,13.57
2023-02-07T16:45:17.005Z,13.77
2023-02-07T16:48:39.006Z,16.20
2023-02-07T16:52:00.812Z,15.80
2023-02-07T16:55:27.093Z,14.70
2023-02-07T16:58:48.697Z,12.53
2023-02-07T17:02:15.248Z,13.03
2023-02-07T17:05:36.831Z,16.27
2023-02-07T17:08:58.977Z,12.77
2023-02-07T17:12:21.880Z,15.23
2023-02-07T17:15:43.711Z,11.53
2023-02-07T17:19:11.814Z,11.03
2023-02-07T17:22:33.396Z,9.10
2023-02-07T17:25:55.632Z,11.43
2023-02-07T17:29:19.315Z,11.83
2023-02-07T17:32:41.216Z,10.70
2023-02-07T17:36:03.073Z,10.47
2023-02-07T17:39:24.343Z,10.43
2023-02-07T17:42:46.124Z,9.90
2023-02-07T17:46:16.552Z,10.03
2023-02-07T17:49:38.315Z,9.80
2023-02-07T17:53:01.425Z,9.87
2023-02-07T17:56:25.618Z,9.63
2023-02-07T17:59:47.268Z,9.90
2023-02-07T18:03:10.726Z,11.70
2023-02-07T18:06:32.312Z,12.83
2023-02-07T18:09:53.996Z,16.03
2023-02-07T18:13:15.780Z,14.73
2023-02-07T18:16:38.280Z,17.10
2023-02-07T18:20:01.176Z,18.60
2023-02-07T18:23:22.756Z,16.97
2023-02-07T18:26:46.445Z,13.43
2023-02-07T18:30:08.884Z,15.63
2023-02-07T18:33:30.532Z,16.87
2023-02-07T18:36:53.201Z,17.97
2023-02-07T18:40:15.741Z,14.60
2023-02-07T18:43:38.076Z,17.33
2023-02-07T18:46:59.560Z,19.30
2023-02-07T18:50:21.592Z,18.93
2023-02-07T18:53:44.564Z,20.53
2023-02-07T18:57:06.594Z,19.57
2023-02-07T19:00:28.297Z,14.73
2023-02-07T19:03:54.282Z,14.30
2023-02-07T19:07:16.165Z,13.00
2023-02-07T19:10:39.295Z,15.23
2023-02-07T19:14:00.940Z,14.67
2023-02-07T19:17:25.060Z,12.40
2023-02-07T19:20:46.717Z,12.30
2023-02-07T19:24:10.755Z,14.27
2023-02-07T19:27:34.081Z,13.23
2023-02-07T19:30:56.117Z,13.73
2023-02-07T19:34:18.267Z,13.80
2023-02-07T19:37:39.782Z,14.23
2023-02-07T19:41:02.132Z,17.30
2023-02-07T19:44:25.408Z,15.13
2023-02-07T19:47:47.027Z,15.50
2023-02-07T19:51:11.338Z,14.23
2023-02-07T19:54:33.138Z,13.27
2023-02-07T19:57:55.269Z,14.37
2023-02-07T20:01:19.492Z,13.07
2023-02-07T20:04:41.302Z,13.23
2023-02-07T20:08:03.115Z,14.33
2023-02-07T20:11:24.750Z,12.80
2023-02-07T20:14:46.612Z,12.53
2023-02-07T20:18:10.372Z,11.87
2023-02-07T20:21:33.579Z,11.00
2023-02-07T20:24:55.007Z,10.77
2023-02-07T20:28:17.348Z,11.80
2023-02-07T20:31:40.371Z,14.27
2023-02-07T20:35:03.494Z,16.37
2023-02-07T20:38:25.175Z,16.43
2023-02-07T20:41:47.408Z,14.30
2023-02-07T20:45:10.373Z,13.07
2023-02-07T20:48:33.373Z,12.10
2023-02-07T20:51:58.104Z,10.67
2023-02-07T20:55:19.986Z,9.87
2023-02-07T20:58:41.892Z,11.00
2023-02-07T21:02:03.702Z,10.17
2023-02-07T21:05:25.480Z,10.17
2023-02-07T21:08:49.734Z,10.80
2023-02-07T21:12:11.504Z,12.07
2023-02-07T21:15:33.280Z,11.03
2023-02-07T21:18:55.017Z,10.77
2023-02-07T21:22:16.880Z,12.37
2023-02-07T21:25:39.746Z,11.70
2023-02-07T21:29:04.438Z,12.30
2023-02-07T21:32:26.192Z,11.47
2023-02-07T21:35:48.642Z,10.63
2023-02-07T21:39:12.167Z,9.43
2023-02-07T21:42:35.328Z,9.03
2023-02-07T21:46:03.948Z,9.57
2023-02-07T21:49:25.635Z,8.90
2023-02-07T21:52:48.163Z,9.37
2023-02-07T21:56:13.667Z,10.70
2023-02-07T21:59:36.463Z,9.60
2023-02-07T22:02:58.219Z,10.43
2023-02-07T22:06:22.382Z,11.37
2023-02-07T22:09:43.803Z,10.00
2023-02-07T22:13:05.595Z,10.93
2023-02-07T22:16:30.062Z,11.13
2023-02-07T22:19:52.377Z,10.50
2023-02-07T22:23:14.170Z,12.07
2023-02-07T22:26:36.495Z,11.53
2023-02-07T22:29:58.281Z,11.20
2023-02-07T22:33:21.382Z,10.27
2023-02-07T22:36:44.893Z,10.60
2023-02-07T22:40:07.225Z,10.77
2023-02-07T22:43:28.997Z,11.50
2023-02-07T22:46:50.907Z,10.30
2023-02-07T22:50:14.126Z,10.53
2023-02-07T22:53:35.767Z,11.20
2023-02-07T22:56:57.568Z,9.73
2023-02-07T23:00:20.222Z,9.37
2023-02-07T23:03:41.829Z,9.17
2023-02-07T23:07:04.986Z,9.73
2023-02-07T23:10:26.872Z,9.80
2023-02-07T23:13:48.649Z,9.40
2023-02-07T23:17:10.510Z,10.47
2023-02-07T23:20:32.268Z,10.17
2023-02-07T23:23:57.175Z,9.67
2023-02-07T23:27:18.939Z,10.90
2023-02-07T23:30:41.482Z,11.00
2023-02-07T23:34:03.999Z,10.53
2023-02-07T23:37:25.932Z,9.77
2023-02-07T23:40:48.656Z,10.13
2023-02-07T23:44:10.311Z,9.73
2023-02-07T23:47:31.547Z,9.27
2023-02-07T23:50:54.165Z,9.53
2023-02-07T23:54:15.645Z,9.93
2023-02-07T23:57:38.337Z,10.80
